sensor_id;sensor_type;location;lat;lon;timestamp;temperature;humidity
70151;DHT22;57517;43.562;19.540;2023-08-07T00:00:45;461.10;2380.80
70151;DHT22;57517;43.562;19.540;2023-08-07T00:03:11;460.90;2380.80
70151;DHT22;57517;43.562;19.540;2023-08-07T00:05:37;460.80;2380.80
70151;DHT22;57517;43.562;19.540;2023-08-07T00:08:02;460.80;2380.80
70151;DHT22;57517;43.562;19.540;2023-08-07T00:10:28;460.80;2380.80
70151;DHT22;57517;43.562;19.540;2023-08-07T00:12:55;460.90;2380.80
70151;DHT22;57517;43.562;19.540;2023-08-07T00:15:21;461.00;2380.80
70151;DHT22;57517;43.562;19.540;2023-08-07T00:17:47;460.80;2380.80
70151;DHT22;57517;43.562;19.540;2023-08-07T00:20:12;460.90;2380.80
70151;DHT22;57517;43.562;19.540;2023-08-07T00:22:38;460.90;2380.80
70151;DHT22;57517;43.562;19.540;2023-08-07T00:25:04;436.00;2355.20
70151;DHT22;57517;43.562;19.540;2023-08-07T00:27:30;436.10;2355.20
70151;DHT22;57517;43.562;19.540;2023-08-07T00:29:56;460.80;2380.80
70151;DHT22;57517;43.562;19.540;2023-08-07T00:32:22;460.80;2380.80
70151;DHT22;57517;43.562;19.540;2023-08-07T00:34:48;461.00;2380.80
70151;DHT22;57517;43.562;19.540;2023-08-07T00:37:13;461.20;2380.80
70151;DHT22;57517;43.562;19.540;2023-08-07T00:39:39;461.20;2380.80
70151;DHT22;57517;43.562;19.540;2023-08-07T00:42:05;461.20;2380.80
70151;DHT22;57517;43.562;19.540;2023-08-07T00:44:31;461.30;2380.80
70151;DHT22;57517;43.562;19.540;2023-08-07T00:46:57;461.30;2380.80
70151;DHT22;57517;43.562;19.540;2023-08-07T00:49:23;461.30;2380.80
70151;DHT22;57517;43.562;19.540;2023-08-07T00:51:49;461.20;2380.80
70151;DHT22;57517;43.562;19.540;2023-08-07T00:54:15;461.10;2380.80
70151;DHT22;57517;43.562;19.540;2023-08-07T00:56:43;461.20;2380.80
70151;DHT22;57517;43.562;19.540;2023-08-07T00:59:10;461.10;2380.80
70151;DHT22;57517;43.562;19.540;2023-08-07T01:01:36;461.00;2380.80
70151;DHT22;57517;43.562;19.540;2023-08-07T01:04:02;461.20;2380.80
70151;DHT22;57517;43.562;19.540;2023-08-07T01:06:28;461.20;2380.80
70151;DHT22;57517;43.562;19.540;2023-08-07T01:08:54;461.20;2380.80
70151;DHT22;57517;43.562;19.540;2023-08-07T01:14:35;461.10;2380.80
70151;DHT22;57517;43.562;19.540;2023-08-07T01:17:14;461.20;2380.80
70151;DHT22;57517;43.562;19.540;2023-08-07T01:19:41;461.00;2380.80
70151;DHT22;57517;43.562;19.540;2023-08-07T01:24:37;461.10;2380.80
70151;DHT22;57517;43.562;19.540;2023-08-07T01:35:52;461.20;2380.80
70151;DHT22;57517;43.562;19.540;2023-08-07T01:38:20;460.90;2380.80
70151;DHT22;57517;43.562;19.540;2023-08-07T01:40:48;460.80;2380.80
70151;DHT22;57517;43.562;19.540;2023-08-07T01:43:14;460.80;2380.80
70151;DHT22;57517;43.562;19.540;2023-08-07T01:45:40;460.90;2380.80
70151;DHT22;57517;43.562;19.540;2023-08-07T01:48:05;460.80;2380.80
70151;DHT22;57517;43.562;19.540;2023-08-07T01:50:31;460.90;2380.80
70151;DHT22;57517;43.562;19.540;2023-08-07T01:52:57;460.80;2380.80
70151;DHT22;57517;43.562;19.540;2023-08-07T01:55:23;460.80;2380.80
70151;DHT22;57517;43.562;19.540;2023-08-07T01:57:50;460.80;2380.80
70151;DHT22;57517;43.562;19.540;2023-08-07T02:00:15;460.90;2380.80
70151;DHT22;57517;43.562;19.540;2023-08-07T02:02:41;460.90;2380.80
70151;DHT22;57517;43.562;19.540;2023-08-07T02:05:07;460.90;2380.80
70151;DHT22;57517;43.562;19.540;2023-08-07T02:07:33;460.80;2380.80
70151;DHT22;57517;43.562;19.540;2023-08-07T02:09:59;436.10;2355.20
70151;DHT22;57517;43.562;19.540;2023-08-07T02:12:24;460.80;2380.80
70151;DHT22;57517;43.562;19.540;2023-08-07T02:14:52;436.10;2355.20
70151;DHT22;57517;43.562;19.540;2023-08-07T02:17:20;435.90;2355.20
70151;DHT22;57517;43.562;19.540;2023-08-07T02:19:46;436.00;2355.20
70151;DHT22;57517;43.562;19.540;2023-08-07T02:22:11;436.10;2355.20
70151;DHT22;57517;43.562;19.540;2023-08-07T02:24:37;436.10;2355.20
70151;DHT22;57517;43.562;19.540;2023-08-07T02:27:03;460.90;2380.80
70151;DHT22;57517;43.562;19.540;2023-08-07T02:29:29;461.00;2380.80
70151;DHT22;57517;43.562;19.540;2023-08-07T02:31:55;461.10;2380.80
70151;DHT22;57517;43.562;19.540;2023-08-07T02:34:21;461.30;2380.80
70151;DHT22;57517;43.562;19.540;2023-08-07T02:36:47;461.20;2380.80
70151;DHT22;57517;43.562;19.540;2023-08-07T02:39:13;461.30;2380.80
70151;DHT22;57517;43.562;19.540;2023-08-07T02:41:39;461.40;2380.80
70151;DHT22;57517;43.562;19.540;2023-08-07T02:44:05;461.30;2380.80
70151;DHT22;57517;43.562;19.540;2023-08-07T02:46:31;461.40;2380.80
70151;DHT22;57517;43.562;19.540;2023-08-07T02:48:57;461.30;2380.80
70151;DHT22;57517;43.562;19.540;2023-08-07T02:51:23;461.10;2380.80
70151;DHT22;57517;43.562;19.540;2023-08-07T02:53:48;460.90;2380.80
70151;DHT22;57517;43.562;19.540;2023-08-07T02:56:14;460.90;2380.80
70151;DHT22;57517;43.562;19.540;2023-08-07T02:58:40;461.10;2380.80
70151;DHT22;57517;43.562;19.540;2023-08-07T03:01:06;460.90;2380.80
70151;DHT22;57517;43.562;19.540;2023-08-07T03:03:32;460.90;2380.80
70151;DHT22;57517;43.562;19.540;2023-08-07T03:05:58;460.80;2380.80
70151;DHT22;57517;43.562;19.540;2023-08-07T03:08:24;436.10;2355.20
70151;DHT22;57517;43.562;19.540;2023-08-07T03:10:57;436.10;2355.20
70151;DHT22;57517;43.562;19.540;2023-08-07T03:13:27;460.80;2380.80
70151;DHT22;57517;43.562;19.540;2023-08-07T03:16:13;436.00;2355.20
70151;DHT22;57517;43.562;19.540;2023-08-07T03:18:38;436.00;2355.20
70151;DHT22;57517;43.562;19.540;2023-08-07T03:21:04;436.00;2355.20
70151;DHT22;57517;43.562;19.540;2023-08-07T03:23:30;436.00;2355.20
70151;DHT22;57517;43.562;19.540;2023-08-07T03:26:04;436.10;2355.20
70151;DHT22;57517;43.562;19.540;2023-08-07T03:28:30;460.90;2380.80
70151;DHT22;57517;43.562;19.540;2023-08-07T03:30:56;460.90;2380.80
70151;DHT22;57517;43.562;19.540;2023-08-07T03:33:22;460.90;2380.80
70151;DHT22;57517;43.562;19.540;2023-08-07T03:35:47;460.90;2380.80
70151;DHT22;57517;43.562;19.540;2023-08-07T03:38:13;460.90;2380.80
70151;DHT22;57517;43.562;19.540;2023-08-07T03:40:39;461.10;2380.80
70151;DHT22;57517;43.562;19.540;2023-08-07T03:43:05;461.20;2380.80
70151;DHT22;57517;43.562;19.540;2023-08-07T03:45:30;461.00;2380.80
70151;DHT22;57517;43.562;19.540;2023-08-07T03:47:56;461.20;2380.80
70151;DHT22;57517;43.562;19.540;2023-08-07T03:50:22;461.20;2380.80
70151;DHT22;57517;43.562;19.540;2023-08-07T03:52:48;461.20;2380.80
70151;DHT22;57517;43.562;19.540;2023-08-07T03:55:13;461.20;2380.80
70151;DHT22;57517;43.562;19.540;2023-08-07T03:57:39;461.20;2380.80
70151;DHT22;57517;43.562;19.540;2023-08-07T04:00:06;460.90;2380.80
70151;DHT22;57517;43.562;19.540;2023-08-07T04:02:31;460.90;2380.80
70151;DHT22;57517;43.562;19.540;2023-08-07T04:04:57;460.90;2380.80
70151;DHT22;57517;43.562;19.540;2023-08-07T04:07:23;460.90;2380.80
70151;DHT22;57517;43.562;19.540;2023-08-07T04:09:49;460.90;2380.80
70151;DHT22;57517;43.562;19.540;2023-08-07T04:12:15;461.00;2380.80
70151;DHT22;57517;43.562;19.540;2023-08-07T04:14:40;460.90;2380.80
70151;DHT22;57517;43.562;19.540;2023-08-07T04:17:06;461.00;2380.80
70151;DHT22;57517;43.562;19.540;2023-08-07T04:19:32;461.20;2380.80
70151;DHT22;57517;43.562;19.540;2023-08-07T04:21:58;461.00;2380.80
70151;DHT22;57517;43.562;19.540;2023-08-07T04:24:24;460.90;2380.80
70151;DHT22;57517;43.562;19.540;2023-08-07T04:26:50;461.10;2380.80
70151;DHT22;57517;43.562;19.540;2023-08-07T04:29:16;461.20;2380.80
70151;DHT22;57517;43.562;19.540;2023-08-07T04:31:42;461.30;2380.80
70151;DHT22;57517;43.562;19.540;2023-08-07T04:34:08;461.30;2380.80
70151;DHT22;57517;43.562;19.540;2023-08-07T04:36:34;461.50;2380.80
70151;DHT22;57517;43.562;19.540;2023-08-07T04:39:00;461.30;2380.80
70151;DHT22;57517;43.562;19.540;2023-08-07T04:41:25;461.00;2380.80
70151;DHT22;57517;43.562;19.540;2023-08-07T04:43:51;461.10;2380.80
70151;DHT22;57517;43.562;19.540;2023-08-07T04:46:17;461.30;2380.80
70151;DHT22;57517;43.562;19.540;2023-08-07T04:48:43;461.30;2380.80
70151;DHT22;57517;43.562;19.540;2023-08-07T04:51:08;461.10;2380.80
70151;DHT22;57517;43.562;19.540;2023-08-07T04:53:34;461.10;2380.80
70151;DHT22;57517;43.562;19.540;2023-08-07T04:56:00;461.30;2380.80
70151;DHT22;57517;43.562;19.540;2023-08-07T04:58:26;461.20;2380.80
70151;DHT22;57517;43.562;19.540;2023-08-07T05:00:55;461.00;2380.80
70151;DHT22;57517;43.562;19.540;2023-08-07T05:03:21;461.20;2380.80
70151;DHT22;57517;43.562;19.540;2023-08-07T05:05:47;461.30;2380.80
70151;DHT22;57517;43.562;19.540;2023-08-07T05:08:13;461.40;2380.80
70151;DHT22;57517;43.562;19.540;2023-08-07T05:10:39;461.40;2380.80
70151;DHT22;57517;43.562;19.540;2023-08-07T05:13:06;461.30;2380.80
70151;DHT22;57517;43.562;19.540;2023-08-07T05:15:31;461.40;2380.80
70151;DHT22;57517;43.562;19.540;2023-08-07T05:17:57;461.30;2380.80
70151;DHT22;57517;43.562;19.540;2023-08-07T05:20:23;461.30;2380.80
70151;DHT22;57517;43.562;19.540;2023-08-07T05:22:49;461.40;2380.80
70151;DHT22;57517;43.562;19.540;2023-08-07T05:25:16;461.50;2380.80
70151;DHT22;57517;43.562;19.540;2023-08-07T05:27:45;461.60;2380.80
70151;DHT22;57517;43.562;19.540;2023-08-07T05:30:12;461.70;2380.80
70151;DHT22;57517;43.562;19.540;2023-08-07T05:32:38;486.40;2380.80
70151;DHT22;57517;43.562;19.540;2023-08-07T05:35:05;486.60;2380.80
70151;DHT22;57517;43.562;19.540;2023-08-07T05:37:31;486.80;2380.80
70151;DHT22;57517;43.562;19.540;2023-08-07T05:39:57;486.80;2380.80
70151;DHT22;57517;43.562;19.540;2023-08-07T05:42:23;486.80;2380.80
70151;DHT22;57517;43.562;19.540;2023-08-07T05:44:49;486.60;2380.80
70151;DHT22;57517;43.562;19.540;2023-08-07T05:47:14;461.70;2380.80
70151;DHT22;57517;43.562;19.540;2023-08-07T05:49:40;461.70;2380.80
70151;DHT22;57517;43.562;19.540;2023-08-07T05:52:07;461.70;2380.80
70151;DHT22;57517;43.562;19.540;2023-08-07T05:54:33;461.70;2380.80
70151;DHT22;57517;43.562;19.540;2023-08-07T05:56:59;461.70;2380.80
70151;DHT22;57517;43.562;19.540;2023-08-07T05:59:25;461.60;2380.80
70151;DHT22;57517;43.562;19.540;2023-08-07T06:01:51;461.70;2380.80
70151;DHT22;57517;43.562;19.540;2023-08-07T06:04:17;461.70;2380.80
70151;DHT22;57517;43.562;19.540;2023-08-07T06:06:43;486.40;2380.80
70151;DHT22;57517;43.562;19.540;2023-08-07T06:09:09;461.70;2380.80
70151;DHT22;57517;43.562;19.540;2023-08-07T06:11:35;461.70;2380.80
70151;DHT22;57517;43.562;19.540;2023-08-07T06:14:01;486.50;2380.80
70151;DHT22;57517;43.562;19.540;2023-08-07T06:16:27;486.60;2380.80
70151;DHT22;57517;43.562;19.540;2023-08-07T06:18:53;486.70;2380.80
70151;DHT22;57517;43.562;19.540;2023-08-07T06:21:19;486.90;2380.80
70151;DHT22;57517;43.562;19.540;2023-08-07T06:23:46;487.00;2380.80
70151;DHT22;57517;43.562;19.540;2023-08-07T06:26:12;486.70;2380.80
70151;DHT22;57517;43.562;19.540;2023-08-07T06:28:38;486.40;2380.80
70151;DHT22;57517;43.562;19.540;2023-08-07T06:31:06;461.70;2380.80
70151;DHT22;57517;43.562;19.540;2023-08-07T06:33:32;486.50;2380.80
70151;DHT22;57517;43.562;19.540;2023-08-07T06:36:02;486.70;2380.80
70151;DHT22;57517;43.562;19.540;2023-08-07T06:38:28;486.80;2380.80
70151;DHT22;57517;43.562;19.540;2023-08-07T06:40:54;486.80;2380.80
70151;DHT22;57517;43.562;19.540;2023-08-07T06:43:20;486.80;2380.80
70151;DHT22;57517;43.562;19.540;2023-08-07T06:45:55;486.70;2380.80
70151;DHT22;57517;43.562;19.540;2023-08-07T06:48:21;486.90;2380.80
70151;DHT22;57517;43.562;19.540;2023-08-07T06:50:50;486.90;2380.80
70151;DHT22;57517;43.562;19.540;2023-08-07T06:53:16;487.10;2380.80
70151;DHT22;57517;43.562;19.540;2023-08-07T06:55:43;486.90;2380.80
70151;DHT22;57517;43.562;19.540;2023-08-07T06:58:09;487.10;2380.80
70151;DHT22;57517;43.562;19.540;2023-08-07T07:00:36;537.60;2406.40
70151;DHT22;57517;43.562;19.540;2023-08-07T07:03:02;512.60;2380.80
70151;DHT22;57517;43.562;19.540;2023-08-07T07:05:28;512.70;2380.80
70151;DHT22;57517;43.562;19.540;2023-08-07T07:07:54;538.40;2252.80
70151;DHT22;57517;43.562;19.540;2023-08-07T07:10:20;537.80;2406.40
70151;DHT22;57517;43.562;19.540;2023-08-07T07:12:46;538.20;2329.60
70151;DHT22;57517;43.562;19.540;2023-08-07T07:15:12;563.60;2150.40
70151;DHT22;57517;43.562;19.540;2023-08-07T07:17:38;588.80;1971.20
70151;DHT22;57517;43.562;19.540;2023-08-07T07:20:04;589.00;1945.60
70151;DHT22;57517;43.562;19.540;2023-08-07T07:22:30;588.80;1971.20
70151;DHT22;57517;43.562;19.540;2023-08-07T07:24:56;564.10;1996.80
70151;DHT22;57517;43.562;19.540;2023-08-07T07:27:22;589.40;1894.40
70151;DHT22;57517;43.562;19.540;2023-08-07T07:29:48;589.40;1868.80
70151;DHT22;57517;43.562;19.540;2023-08-07T07:32:14;640.00;1664.00
70151;DHT22;57517;43.562;19.540;2023-08-07T07:34:40;615.10;1689.60
70151;DHT22;57517;43.562;19.540;2023-08-07T07:37:06;640.40;1587.20
70151;DHT22;57517;43.562;19.540;2023-08-07T07:39:31;640.90;1561.60
70151;DHT22;57517;43.562;19.540;2023-08-07T07:41:57;665.80;1561.60
70151;DHT22;57517;43.562;19.540;2023-08-07T07:44:23;640.30;1587.20
70151;DHT22;57517;43.562;19.540;2023-08-07T07:46:49;640.00;1638.40
70151;DHT22;57517;43.562;19.540;2023-08-07T07:49:15;614.90;1664.00
70151;DHT22;57517;43.562;19.540;2023-08-07T07:51:41;640.00;1612.80
70151;DHT22;57517;43.562;19.540;2023-08-07T07:54:08;614.90;1664.00
70151;DHT22;57517;43.562;19.540;2023-08-07T07:56:34;614.80;1715.20
70151;DHT22;57517;43.562;19.540;2023-08-07T07:58:59;615.20;1664.00
70151;DHT22;57517;43.562;19.540;2023-08-07T08:01:25;640.70;1587.20
70151;DHT22;57517;43.562;19.540;2023-08-07T08:03:51;640.30;1612.80
70151;DHT22;57517;43.562;19.540;2023-08-07T08:06:17;640.20;1612.80
70151;DHT22;57517;43.562;19.540;2023-08-07T08:08:43;615.20;1638.40
70151;DHT22;57517;43.562;19.540;2023-08-07T08:11:09;614.60;1715.20
70151;DHT22;57517;43.562;19.540;2023-08-07T08:13:35;589.30;1817.60
70151;DHT22;57517;43.562;19.540;2023-08-07T08:16:04;588.90;1868.80
70151;DHT22;57517;43.562;19.540;2023-08-07T08:18:31;588.80;1920.00
70151;DHT22;57517;43.562;19.540;2023-08-07T08:20:57;588.90;1920.00
70151;DHT22;57517;43.562;19.540;2023-08-07T08:23:22;589.10;1868.80
70151;DHT22;57517;43.562;19.540;2023-08-07T08:25:49;589.50;1817.60
70151;DHT22;57517;43.562;19.540;2023-08-07T08:28:14;589.40;1843.20
70151;DHT22;57517;43.562;19.540;2023-08-07T08:30:42;589.50;1868.80
70151;DHT22;57517;43.562;19.540;2023-08-07T08:33:07;614.60;1740.80
70151;DHT22;57517;43.562;19.540;2023-08-07T08:35:37;640.10;1638.40
70151;DHT22;57517;43.562;19.540;2023-08-07T08:38:02;665.80;1561.60
70151;DHT22;57517;43.562;19.540;2023-08-07T08:40:33;691.40;1484.80
70151;DHT22;57517;43.562;19.540;2023-08-07T08:43:00;691.50;1408.00
70151;DHT22;57517;43.562;19.540;2023-08-07T08:45:27;666.40;1408.00
70151;DHT22;57517;43.562;19.540;2023-08-07T08:48:01;665.80;1459.20
70151;DHT22;57517;43.562;19.540;2023-08-07T08:50:28;640.80;1484.80
70151;DHT22;57517;43.562;19.540;2023-08-07T08:52:55;666.00;1484.80
70151;DHT22;57517;43.562;19.540;2023-08-07T08:55:22;665.80;1510.40
70151;DHT22;57517;43.562;19.540;2023-08-07T08:57:48;666.10;1459.20
70151;DHT22;57517;43.562;19.540;2023-08-07T09:00:16;666.20;1459.20
70151;DHT22;57517;43.562;19.540;2023-08-07T09:02:49;666.10;1459.20
70151;DHT22;57517;43.562;19.540;2023-08-07T09:05:16;666.30;1459.20
70151;DHT22;57517;43.562;19.540;2023-08-07T09:07:42;666.30;1459.20
70151;DHT22;57517;43.562;19.540;2023-08-07T09:10:10;666.50;1433.60
70151;DHT22;57517;43.562;19.540;2023-08-07T09:12:40;666.50;1433.60
70151;DHT22;57517;43.562;19.540;2023-08-07T09:15:08;691.20;1459.20
70151;DHT22;57517;43.562;19.540;2023-08-07T09:17:40;691.20;1408.00
70151;DHT22;57517;43.562;19.540;2023-08-07T09:20:07;691.20;1408.00
70151;DHT22;57517;43.562;19.540;2023-08-07T09:22:38;691.60;1382.40
70151;DHT22;57517;43.562;19.540;2023-08-07T09:25:04;691.60;1382.40
70151;DHT22;57517;43.562;19.540;2023-08-07T09:27:30;691.60;1382.40
70151;DHT22;57517;43.562;19.540;2023-08-07T09:29:58;691.50;1356.80
70151;DHT22;57517;43.562;19.540;2023-08-07T09:32:24;691.20;1356.80
70151;DHT22;57517;43.562;19.540;2023-08-07T09:34:50;666.50;1356.80
70151;DHT22;57517;43.562;19.540;2023-08-07T09:37:19;666.50;1356.80
70151;DHT22;57517;43.562;19.540;2023-08-07T09:39:46;666.40;1356.80
70151;DHT22;57517;43.562;19.540;2023-08-07T09:42:16;666.00;1408.00
70151;DHT22;57517;43.562;19.540;2023-08-07T09:44:43;666.10;1408.00
70151;DHT22;57517;43.562;19.540;2023-08-07T09:47:18;665.80;1433.60
70151;DHT22;57517;43.562;19.540;2023-08-07T09:49:45;666.00;1382.40
70151;DHT22;57517;43.562;19.540;2023-08-07T09:52:12;666.10;1408.00
70151;DHT22;57517;43.562;19.540;2023-08-07T09:54:41;666.50;1382.40
70151;DHT22;57517;43.562;19.540;2023-08-07T09:57:07;691.20;1356.80
70151;DHT22;57517;43.562;19.540;2023-08-07T09:59:34;691.20;1331.20
70151;DHT22;57517;43.562;19.540;2023-08-07T10:02:03;666.50;1305.60
70151;DHT22;57517;43.562;19.540;2023-08-07T10:04:30;666.50;1305.60
70151;DHT22;57517;43.562;19.540;2023-08-07T10:06:57;666.40;1331.20
70151;DHT22;57517;43.562;19.540;2023-08-07T10:09:23;691.20;1305.60
70151;DHT22;57517;43.562;19.540;2023-08-07T10:11:49;691.50;1305.60
70151;DHT22;57517;43.562;19.540;2023-08-07T10:14:16;691.60;1305.60
70151;DHT22;57517;43.562;19.540;2023-08-07T10:16:42;691.40;1280.00
70151;DHT22;57517;43.562;19.540;2023-08-07T10:19:09;691.50;1280.00
70151;DHT22;57517;43.562;19.540;2023-08-07T10:21:41;691.70;1228.80
70151;DHT22;57517;43.562;19.540;2023-08-07T10:24:11;691.70;1203.20
70151;DHT22;57517;43.562;19.540;2023-08-07T10:26:40;691.70;1152.00
70151;DHT22;57517;43.562;19.540;2023-08-07T10:29:10;692.00;1126.40
70151;DHT22;57517;43.562;19.540;2023-08-07T10:31:38;716.90;1152.00
70151;DHT22;57517;43.562;19.540;2023-08-07T10:34:05;692.10;1152.00
70151;DHT22;57517;43.562;19.540;2023-08-07T10:36:35;716.90;1152.00
70151;DHT22;57517;43.562;19.540;2023-08-07T10:39:11;717.00;1152.00
70151;DHT22;57517;43.562;19.540;2023-08-07T10:41:44;692.10;1152.00
70151;DHT22;57517;43.562;19.540;2023-08-07T10:44:21;692.10;1152.00
70151;DHT22;57517;43.562;19.540;2023-08-07T10:46:52;716.90;1177.60
70151;DHT22;57517;43.562;19.540;2023-08-07T10:49:39;717.00;1152.00
70151;DHT22;57517;43.562;19.540;2023-08-07T10:52:13;717.00;1126.40
70151;DHT22;57517;43.562;19.540;2023-08-07T10:54:50;716.90;1152.00
70151;DHT22;57517;43.562;19.540;2023-08-07T10:57:17;716.80;1177.60
70151;DHT22;57517;43.562;19.540;2023-08-07T10:59:50;716.80;1152.00
70151;DHT22;57517;43.562;19.540;2023-08-07T11:02:28;716.80;1177.60
70151;DHT22;57517;43.562;19.540;2023-08-07T11:04:55;716.80;1177.60
70151;DHT22;57517;43.562;19.540;2023-08-07T11:07:29;716.90;1152.00
70151;DHT22;57517;43.562;19.540;2023-08-07T11:09:56;692.10;1126.40
70151;DHT22;57517;43.562;19.540;2023-08-07T11:12:26;692.10;1152.00
70151;DHT22;57517;43.562;19.540;2023-08-07T11:14:56;716.90;1177.60
70151;DHT22;57517;43.562;19.540;2023-08-07T11:17:25;717.00;1152.00
70151;DHT22;57517;43.562;19.540;2023-08-07T11:19:51;717.20;1152.00
70151;DHT22;57517;43.562;19.540;2023-08-07T11:22:17;717.00;1177.60
70151;DHT22;57517;43.562;19.540;2023-08-07T11:24:43;717.10;1177.60
70151;DHT22;57517;43.562;19.540;2023-08-07T11:27:08;717.00;1177.60
70151;DHT22;57517;43.562;19.540;2023-08-07T11:29:34;716.90;1177.60
70151;DHT22;57517;43.562;19.540;2023-08-07T11:32:00;717.00;1177.60
70151;DHT22;57517;43.562;19.540;2023-08-07T11:34:26;717.10;1177.60
70151;DHT22;57517;43.562;19.540;2023-08-07T11:36:52;717.20;1152.00
70151;DHT22;57517;43.562;19.540;2023-08-07T11:39:20;717.30;1177.60
70151;DHT22;57517;43.562;19.540;2023-08-07T11:41:47;717.40;1152.00
70151;DHT22;57517;43.562;19.540;2023-08-07T11:44:13;717.30;1126.40
70151;DHT22;57517;43.562;19.540;2023-08-07T11:46:39;717.40;1126.40
70151;DHT22;57517;43.562;19.540;2023-08-07T11:49:05;717.60;1100.80
70151;DHT22;57517;43.562;19.540;2023-08-07T11:51:31;717.60;1126.40
70151;DHT22;57517;43.562;19.540;2023-08-07T11:53:58;717.60;1126.40
70151;DHT22;57517;43.562;19.540;2023-08-07T11:56:25;717.50;1152.00
70151;DHT22;57517;43.562;19.540;2023-08-07T11:58:52;717.50;1126.40
70151;DHT22;57517;43.562;19.540;2023-08-07T12:01:23;717.50;1126.40
70151;DHT22;57517;43.562;19.540;2023-08-07T12:06:34;717.40;1152.00
70151;DHT22;57517;43.562;19.540;2023-08-07T12:09:01;717.50;1152.00
70151;DHT22;57517;43.562;19.540;2023-08-07T12:11:29;717.60;1152.00
70151;DHT22;57517;43.562;19.540;2023-08-07T12:14:00;717.40;1126.40
70151;DHT22;57517;43.562;19.540;2023-08-07T12:16:32;717.40;1100.80
70151;DHT22;57517;43.562;19.540;2023-08-07T12:18:58;717.50;1126.40
70151;DHT22;57517;43.562;19.540;2023-08-07T12:21:25;717.60;1100.80
70151;DHT22;57517;43.562;19.540;2023-08-07T12:23:54;717.60;1100.80
70151;DHT22;57517;43.562;19.540;2023-08-07T12:26:20;742.40;1126.40
70151;DHT22;57517;43.562;19.540;2023-08-07T12:28:46;742.50;1126.40
70151;DHT22;57517;43.562;19.540;2023-08-07T12:31:12;742.50;1126.40
70151;DHT22;57517;43.562;19.540;2023-08-07T12:33:38;742.40;1126.40
70151;DHT22;57517;43.562;19.540;2023-08-07T12:36:04;742.40;1126.40
70151;DHT22;57517;43.562;19.540;2023-08-07T12:38:30;742.40;1152.00
70151;DHT22;57517;43.562;19.540;2023-08-07T12:40:56;717.70;1152.00
70151;DHT22;57517;43.562;19.540;2023-08-07T12:43:22;717.70;1152.00
70151;DHT22;57517;43.562;19.540;2023-08-07T12:45:47;717.60;1177.60
70151;DHT22;57517;43.562;19.540;2023-08-07T12:48:13;717.70;1152.00
70151;DHT22;57517;43.562;19.540;2023-08-07T12:50:40;742.50;1152.00
70151;DHT22;57517;43.562;19.540;2023-08-07T12:53:07;717.70;1152.00
70151;DHT22;57517;43.562;19.540;2023-08-07T12:55:33;717.70;1152.00
70151;DHT22;57517;43.562;19.540;2023-08-07T12:57:59;742.40;1177.60
70151;DHT22;57517;43.562;19.540;2023-08-07T13:00:25;717.70;1177.60
70151;DHT22;57517;43.562;19.540;2023-08-07T13:02:52;717.60;1177.60
70151;DHT22;57517;43.562;19.540;2023-08-07T13:05:21;717.60;1203.20
70151;DHT22;57517;43.562;19.540;2023-08-07T13:07:48;717.60;1177.60
70151;DHT22;57517;43.562;19.540;2023-08-07T13:10:15;717.60;1177.60
70151;DHT22;57517;43.562;19.540;2023-08-07T13:12:44;717.70;1177.60
70151;DHT22;57517;43.562;19.540;2023-08-07T13:15:13;717.60;1203.20
70151;DHT22;57517;43.562;19.540;2023-08-07T13:17:40;717.50;1203.20
70151;DHT22;57517;43.562;19.540;2023-08-07T13:20:06;717.50;1177.60
70151;DHT22;57517;43.562;19.540;2023-08-07T13:22:37;717.20;1228.80
70151;DHT22;57517;43.562;19.540;2023-08-07T13:25:03;717.20;1254.40
70151;DHT22;57517;43.562;19.540;2023-08-07T13:27:31;717.20;1228.80
70151;DHT22;57517;43.562;19.540;2023-08-07T13:29:57;717.20;1228.80
70151;DHT22;57517;43.562;19.540;2023-08-07T13:32:22;717.30;1228.80
70151;DHT22;57517;43.562;19.540;2023-08-07T13:34:48;717.50;1203.20
70151;DHT22;57517;43.562;19.540;2023-08-07T13:37:14;717.60;1177.60
70151;DHT22;57517;43.562;19.540;2023-08-07T13:39:40;717.60;1152.00
70151;DHT22;57517;43.562;19.540;2023-08-07T13:42:07;717.30;1177.60
70151;DHT22;57517;43.562;19.540;2023-08-07T13:44:33;717.20;1177.60
70151;DHT22;57517;43.562;19.540;2023-08-07T13:46:58;717.60;1152.00
70151;DHT22;57517;43.562;19.540;2023-08-07T13:49:24;717.60;1152.00
70151;DHT22;57517;43.562;19.540;2023-08-07T13:51:50;717.20;1203.20
70151;DHT22;57517;43.562;19.540;2023-08-07T13:54:16;716.90;1203.20
70151;DHT22;57517;43.562;19.540;2023-08-07T13:56:42;691.90;1203.20
70151;DHT22;57517;43.562;19.540;2023-08-07T13:59:08;691.70;1228.80
70151;DHT22;57517;43.562;19.540;2023-08-07T14:01:35;691.20;1254.40
70151;DHT22;57517;43.562;19.540;2023-08-07T14:04:01;665.90;1305.60
70151;DHT22;57517;43.562;19.540;2023-08-07T14:06:27;665.70;1305.60
70151;DHT22;57517;43.562;19.540;2023-08-07T14:08:53;640.90;1280.00
70151;DHT22;57517;43.562;19.540;2023-08-07T14:11:19;640.80;1280.00
70151;DHT22;57517;43.562;19.540;2023-08-07T14:13:46;640.70;1254.40
70151;DHT22;57517;43.562;19.540;2023-08-07T14:16:13;640.30;1280.00
70151;DHT22;57517;43.562;19.540;2023-08-07T14:18:38;640.10;1331.20
70151;DHT22;57517;43.562;19.540;2023-08-07T14:21:04;615.30;1356.80
70151;DHT22;57517;43.562;19.540;2023-08-07T14:23:31;640.00;1356.80
70151;DHT22;57517;43.562;19.540;2023-08-07T14:25:57;640.10;1331.20
70151;DHT22;57517;43.562;19.540;2023-08-07T14:28:22;640.20;1356.80
70151;DHT22;57517;43.562;19.540;2023-08-07T14:30:48;640.20;1356.80
70151;DHT22;57517;43.562;19.540;2023-08-07T14:33:14;640.30;1331.20
70151;DHT22;57517;43.562;19.540;2023-08-07T14:35:40;640.50;1331.20
70151;DHT22;57517;43.562;19.540;2023-08-07T14:38:06;640.70;1305.60
70151;DHT22;57517;43.562;19.540;2023-08-07T14:40:32;640.80;1280.00
70151;DHT22;57517;43.562;19.540;2023-08-07T14:42:58;640.90;1280.00
70151;DHT22;57517;43.562;19.540;2023-08-07T14:45:24;640.70;1305.60
70151;DHT22;57517;43.562;19.540;2023-08-07T14:47:50;640.70;1305.60
70151;DHT22;57517;43.562;19.540;2023-08-07T14:50:16;640.50;1331.20